createdAt,value
2022-10-05T00:00:28.320Z,7.56
2022-10-05T00:01:34.002Z,7.40
2022-10-05T00:02:36.673Z,7.48
2022-10-05T00:03:40.637Z,7.51
2022-10-05T00:04:43.144Z,7.52
2022-10-05T00:05:46.501Z,7.45
2022-10-05T00:07:12.856Z,7.46
2022-10-05T00:08:18.398Z,7.49
2022-10-05T00:09:22.066Z,7.39
2022-10-05T00:10:24.785Z,7.39
2022-10-05T00:11:27.349Z,7.35
2022-10-05T00:12:30.157Z,7.38
2022-10-05T00:13:32.555Z,7.43
2022-10-05T00:14:40.576Z,7.37
2022-10-05T00:15:43.979Z,7.37
2022-10-05T00:16:47.144Z,7.40
2022-10-05T00:17:49.821Z,7.40
2022-10-05T00:18:54.004Z,7.40
2022-10-05T00:19:56.698Z,7.28
2022-10-05T00:20:59.048Z,7.33
2022-10-05T00:22:21.059Z,7.24
2022-10-05T00:23:29.767Z,7.34
2022-10-05T00:24:32.289Z,7.34
2022-10-05T00:25:34.709Z,7.30
2022-10-05T00:26:37.018Z,7.26
2022-10-05T00:27:41.304Z,7.17
2022-10-05T00:28:44.029Z,7.20
2022-10-05T00:29:51.366Z,7.12
2022-10-05T00:30:58.275Z,7.15
2022-10-05T00:32:01.510Z,7.19
2022-10-05T00:33:03.993Z,7.12
2022-10-05T00:34:06.356Z,7.14
2022-10-05T00:35:10.037Z,7.16
2022-10-05T00:36:12.893Z,7.18
2022-10-05T00:37:15.408Z,7.14
2022-10-05T00:38:18.179Z,7.19
2022-10-05T00:39:20.629Z,7.19
2022-10-05T00:40:46.380Z,7.15
2022-10-05T00:42:16.663Z,7.16
2022-10-05T00:43:34.448Z,7.04
2022-10-05T00:44:57.032Z,7.00
2022-10-05T00:46:13.191Z,7.01
2022-10-05T00:47:18.494Z,6.95
2022-10-05T00:48:23.837Z,6.89
2022-10-05T00:49:58.556Z,7.01
2022-10-05T00:51:26.460Z,7.04
2022-10-05T00:52:59.287Z,6.94
2022-10-05T00:54:51.392Z,7.03
2022-10-05T00:56:05.674Z,7.08
2022-10-05T00:57:17.341Z,7.06
2022-10-05T00:58:40.045Z,6.97
2022-10-05T01:00:08.776Z,6.86
2022-10-05T01:01:17.572Z,6.84
2022-10-05T01:02:36.944Z,6.92
2022-10-05T01:04:33.576Z,6.94
2022-10-05T01:05:59.573Z,7.06
2022-10-05T01:07:11.414Z,7.05
2022-10-05T01:08:34.797Z,6.92
2022-10-05T01:09:58.160Z,6.95
2022-10-05T01:11:16.604Z,6.92
2022-10-05T01:12:43.956Z,6.91
2022-10-05T01:14:12.874Z,6.92
2022-10-05T01:15:23.113Z,6.95
2022-10-05T01:17:06.095Z,6.92
2022-10-05T01:18:19.730Z,6.91
2022-10-05T01:19:56.120Z,6.87
2022-10-05T01:21:23.846Z,6.91
2022-10-05T01:22:44.883Z,6.87
2022-10-05T01:24:05.687Z,6.87
2022-10-05T01:25:26.450Z,6.86
2022-10-05T01:26:52.363Z,6.86
2022-10-05T01:28:01.753Z,6.85
2022-10-05T01:29:15.739Z,6.85
2022-10-05T01:30:20.610Z,6.87
2022-10-05T01:31:33.433Z,6.87
2022-10-05T01:33:13.519Z,6.84
2022-10-05T01:34:27.595Z,6.85
2022-10-05T01:35:45.198Z,6.83
2022-10-05T01:37:26.851Z,6.77
2022-10-05T01:38:37.894Z,6.82
2022-10-05T01:39:51.087Z,6.82
2022-10-05T01:41:16.936Z,6.72
2022-10-05T01:42:53.225Z,6.75
2022-10-05T01:44:02.215Z,6.73
2022-10-05T01:45:04.581Z,6.72
2022-10-05T01:46:45.289Z,6.70
2022-10-05T01:47:58.836Z,6.75
2022-10-05T01:49:28.359Z,6.68
2022-10-05T01:50:39.430Z,6.68
2022-10-05T01:51:48.233Z,6.71
2022-10-05T01:53:05.085Z,6.71
2022-10-05T01:54:27.651Z,6.67
2022-10-05T01:55:52.713Z,6.62
2022-10-05T01:57:35.276Z,6.63
2022-10-05T01:59:02.080Z,6.58
2022-10-05T02:00:11.280Z,6.57
2022-10-05T02:01:28.060Z,6.56
2022-10-05T02:02:36.621Z,6.57
2022-10-05T02:03:51.871Z,6.56
2022-10-05T02:05:06.769Z,6.49
2022-10-05T02:06:15.882Z,6.54
2022-10-05T02:07:29.664Z,6.54
2022-10-05T02:08:47.356Z,6.53
2022-10-05T02:09:59.693Z,6.55
2022-10-05T02:11:13.606Z,6.52
2022-10-05T02:12:20.135Z,6.51
2022-10-05T02:13:29.680Z,6.39
2022-10-05T02:14:37.573Z,6.37
2022-10-05T02:15:46.618Z,6.46
2022-10-05T02:16:53.913Z,6.46
2022-10-05T02:18:13.334Z,6.48
2022-10-05T02:19:22.358Z,6.47
2022-10-05T02:20:33.216Z,6.35
2022-10-05T02:21:37.000Z,6.35
2022-10-05T02:22:45.895Z,6.40
2022-10-05T02:23:53.863Z,6.39
2022-10-05T02:25:03.298Z,6.37
2022-10-05T02:26:09.032Z,6.30
2022-10-05T02:27:18.559Z,6.33
2022-10-05T02:28:27.286Z,6.40
2022-10-05T02:29:35.897Z,6.41
2022-10-05T02:30:53.282Z,6.37
2022-10-05T02:32:05.396Z,6.37
2022-10-05T02:33:22.557Z,6.39
2022-10-05T02:34:28.272Z,6.41
2022-10-05T02:35:37.567Z,6.39
2022-10-05T02:36:41.132Z,6.45
2022-10-05T02:37:57.519Z,6.40
2022-10-05T02:39:14.247Z,6.37
2022-10-05T02:40:42.758Z,6.39
2022-10-05T02:41:58.082Z,6.30
2022-10-05T02:43:03.529Z,6.34
2022-10-05T02:44:55.399Z,6.22
2022-10-05T02:45:58.475Z,6.29
2022-10-05T02:47:10.396Z,6.26
2022-10-05T02:48:28.117Z,6.26
2022-10-05T02:49:53.576Z,6.25
2022-10-05T02:51:23.181Z,6.23
2022-10-05T02:52:58.374Z,6.28
2022-10-05T02:54:24.543Z,6.29
2022-10-05T02:56:03.510Z,6.22
2022-10-05T02:57:25.505Z,6.20
2022-10-05T02:58:42.941Z,6.22
2022-10-05T02:59:53.353Z,6.21
2022-10-05T03:01:26.566Z,6.21
2022-10-05T03:02:55.831Z,6.19
2022-10-05T03:04:47.326Z,6.14
2022-10-05T03:05:58.845Z,6.12
2022-10-05T03:07:23.861Z,6.13
2022-10-05T03:08:37.192Z,6.12
2022-10-05T03:09:49.579Z,6.09
2022-10-05T03:11:03.671Z,6.17
2022-10-05T03:12:40.072Z,6.08
2022-10-05T03:13:55.813Z,6.13
2022-10-05T03:15:12.335Z,6.15
2022-10-05T03:16:31.799Z,6.16
2022-10-05T03:18:09.650Z,6.20
2022-10-05T03:19:45.333Z,6.17
2022-10-05T03:21:07.701Z,6.20
2022-10-05T03:22:48.642Z,6.15
2022-10-05T03:24:08.251Z,6.12
2022-10-05T03:25:44.566Z,6.05
2022-10-05T03:27:13.279Z,6.00
2022-10-05T03:28:31.231Z,5.94
2022-10-05T03:30:08.511Z,5.96
2022-10-05T03:31:28.133Z,6.02
2022-10-05T03:32:49.173Z,6.05
2022-10-05T03:34:01.176Z,5.94
2022-10-05T03:35:31.111Z,5.93
2022-10-05T03:36:59.318Z,5.97
2022-10-05T03:38:15.434Z,6.00
2022-10-05T03:39:49.910Z,5.99
2022-10-05T03:41:09.970Z,5.98
2022-10-05T03:42:30.317Z,5.98
2022-10-05T03:43:53.680Z,6.00
2022-10-05T03:45:08.045Z,5.97
2022-10-05T03:46:45.164Z,5.95
2022-10-05T03:48:11.755Z,5.95
2022-10-05T03:49:36.999Z,5.97
2022-10-05T03:50:45.294Z,5.97
2022-10-05T03:52:17.529Z,5.94
2022-10-05T03:53:25.320Z,5.94
2022-10-05T03:54:35.155Z,5.96
2022-10-05T03:55:44.306Z,5.92
2022-10-05T03:56:53.118Z,5.96
2022-10-05T03:57:58.859Z,5.95
2022-10-05T03:59:13.657Z,5.91
2022-10-05T04:00:23.826Z,5.91
2022-10-05T04:01:43.408Z,5.88
2022-10-05T04:03:26.170Z,5.90
2022-10-05T04:04:45.747Z,5.92
2022-10-05T04:05:53.892Z,5.87
2022-10-05T04:06:58.487Z,5.87
2022-10-05T04:08:13.572Z,5.82
2022-10-05T04:09:35.671Z,5.75
2022-10-05T04:10:52.583Z,5.80
2022-10-05T04:12:15.434Z,5.79
2022-10-05T04:13:25.769Z,5.78
2022-10-05T04:14:34.510Z,5.71
2022-10-05T04:15:45.101Z,5.68
2022-10-05T04:16:55.001Z,5.64
2022-10-05T04:18:06.297Z,5.70
2022-10-05T04:19:47.096Z,5.69
2022-10-05T04:20:53.492Z,5.78
2022-10-05T04:22:04.157Z,5.80
2022-10-05T04:23:34.601Z,5.80
2022-10-05T04:25:01.751Z,5.84
2022-10-05T04:26:15.013Z,5.85
2022-10-05T04:27:25.143Z,5.80
2022-10-05T04:28:46.678Z,5.79
2022-10-05T04:29:58.638Z,5.81
2022-10-05T04:31:04.354Z,5.78
2022-10-05T04:32:16.427Z,5.77
2022-10-05T04:33:21.776Z,5.71
2022-10-05T04:35:01.731Z,5.75
2022-10-05T04:36:29.283Z,5.74
2022-10-05T04:37:59.700Z,5.72
2022-10-05T04:39:21.679Z,5.64
2022-10-05T04:40:52.425Z,5.71
2022-10-05T04:42:16.370Z,5.75
2022-10-05T04:43:33.752Z,5.73
2022-10-05T04:44:57.013Z,5.72
2022-10-05T04:46:11.668Z,5.73
2022-10-05T04:47:39.147Z,5.64
2022-10-05T04:49:10.626Z,5.64
2022-10-05T04:50:25.001Z,5.64
2022-10-05T04:51:57.150Z,5.71
2022-10-05T04:53:50.415Z,5.73
2022-10-05T04:55:22.776Z,5.72
2022-10-05T04:56:42.800Z,5.84
2022-10-05T04:57:45.676Z,5.86
2022-10-05T04:59:05.810Z,5.93
2022-10-05T05:00:37.973Z,5.97
2022-10-05T05:01:55.889Z,6.08
2022-10-05T05:02:58.325Z,6.13
2022-10-05T05:04:18.894Z,6.15
2022-10-05T05:06:17.018Z,6.23
2022-10-05T05:07:44.954Z,6.29
2022-10-05T05:08:57.679Z,6.35
2022-10-05T05:10:12.682Z,6.47
2022-10-05T05:11:33.611Z,6.54
2022-10-05T05:13:13.031Z,6.50
2022-10-05T05:14:34.631Z,6.57
2022-10-05T05:15:40.125Z,6.65
2022-10-05T05:16:47.126Z,6.72
2022-10-05T05:17:56.643Z,6.78
2022-10-05T05:19:07.636Z,6.87
2022-10-05T05:20:33.927Z,7.46
2022-10-05T05:21:44.824Z,8.98
2022-10-05T05:22:51.247Z,10.12
2022-10-05T05:24:11.723Z,10.73
2022-10-05T05:25:38.062Z,11.53
2022-10-05T05:26:40.686Z,11.78
2022-10-05T05:27:57.899Z,11.64
2022-10-05T05:29:09.224Z,11.97
2022-10-05T05:30:22.158Z,12.17
2022-10-05T05:31:55.880Z,11.92
2022-10-05T05:33:08.675Z,12.07
2022-10-05T05:34:34.105Z,11.90
2022-10-05T05:35:45.537Z,12.11
2022-10-05T05:37:17.121Z,12.10
2022-10-05T05:38:25.897Z,11.56
2022-10-05T05:40:18.426Z,11.54
2022-10-05T05:41:39.864Z,10.31
2022-10-05T05:42:44.111Z,10.25
2022-10-05T05:44:32.503Z,9.91
2022-10-05T05:45:55.670Z,9.64
2022-10-05T05:47:27.156Z,9.46
2022-10-05T05:48:46.995Z,9.40
2022-10-05T05:50:07.674Z,9.17
2022-10-05T05:51:29.287Z,9.11
2022-10-05T05:52:49.895Z,9.05
2022-10-05T05:54:15.621Z,8.97
2022-10-05T05:55:31.569Z,8.99
2022-10-05T05:56:43.790Z,8.88
2022-10-05T05:57:56.879Z,8.92
2022-10-05T05:59:06.728Z,8.83
2022-10-05T06:00:15.170Z,8.90
2022-10-05T06:01:59.272Z,8.88
2022-10-05T06:03:20.373Z,8.97
2022-10-05T06:04:28.930Z,8.92
2022-10-05T06:05:38.664Z,8.97
2022-10-05T06:06:47.410Z,8.92
2022-10-05T06:07:52.871Z,8.97
2022-10-05T06:09:03.360Z,8.95
2022-10-05T06:10:33.684Z,9.04
2022-10-05T06:11:47.958Z,9.05
2022-10-05T06:12:58.499Z,9.10
2022-10-05T06:14:24.159Z,9.12
2022-10-05T06:15:41.712Z,9.15
2022-10-05T06:17:19.309Z,9.18
2022-10-05T06:18:23.377Z,9.15
2022-10-05T06:19:32.636Z,9.05
2022-10-05T06:20:43.671Z,9.08
2022-10-05T06:22:02.901Z,9.08
2022-10-05T06:23:15.136Z,9.11
2022-10-05T06:24:25.852Z,9.26
2022-10-05T06:25:42.713Z,9.31
2022-10-05T06:27:03.692Z,9.33
2022-10-05T06:28:13.223Z,9.38
2022-10-05T06:29:25.523Z,9.45
2022-10-05T06:30:38.053Z,9.55
2022-10-05T06:32:01.818Z,9.50
2022-10-05T06:33:31.382Z,9.48
2022-10-05T06:34:59.694Z,9.51
2022-10-05T06:36:25.102Z,9.55
2022-10-05T06:38:18.397Z,9.48
2022-10-05T06:39:51.159Z,9.47
2022-10-05T06:40:56.593Z,9.37
2022-10-05T06:42:23.846Z,9.36
2022-10-05T06:44:06.386Z,9.25
2022-10-05T06:47:45.147Z,9.28
2022-10-05T06:49:16.211Z,9.31
2022-10-05T06:51:03.517Z,9.36
2022-10-05T06:53:01.563Z,9.35
2022-10-05T06:54:11.777Z,9.34
2022-10-05T06:55:41.626Z,9.43
2022-10-05T06:57:12.587Z,9.41
2022-10-05T06:58:43.047Z,9.41
2022-10-05T07:00:02.275Z,9.48
2022-10-05T07:01:34.650Z,9.37
2022-10-05T07:02:55.641Z,9.56
2022-10-05T07:04:25.074Z,9.64
2022-10-05T07:06:06.120Z,9.75
2022-10-05T07:07:40.543Z,9.85
2022-10-05T07:09:14.388Z,9.83
2022-10-05T07:10:27.756Z,9.87
2022-10-05T07:12:04.501Z,9.83
2022-10-05T07:13:25.229Z,9.84
2022-10-05T07:14:46.383Z,9.64
2022-10-05T07:16:07.942Z,9.55
2022-10-05T07:17:58.572Z,9.40
2022-10-05T07:19:19.503Z,9.52
2022-10-05T07:20:33.782Z,9.34
2022-10-05T07:21:54.334Z,9.30
2022-10-05T07:23:41.902Z,9.38
2022-10-05T07:24:47.384Z,9.52
2022-10-05T07:26:02.032Z,9.60
2022-10-05T07:27:12.875Z,9.69
2022-10-05T07:28:44.485Z,9.82
2022-10-05T07:29:56.724Z,9.96
2022-10-05T07:31:07.356Z,10.23
2022-10-05T07:32:34.345Z,10.41
2022-10-05T07:33:48.541Z,10.47
2022-10-05T07:35:48.494Z,10.64
2022-10-05T07:37:19.468Z,10.49
2022-10-05T07:38:27.840Z,10.35
2022-10-05T07:40:00.694Z,10.28
2022-10-05T07:41:23.081Z,11.59
2022-10-05T07:42:50.666Z,12.59
2022-10-05T07:44:12.547Z,13.59
2022-10-05T07:45:29.133Z,13.80
2022-10-05T07:47:01.290Z,14.70
2022-10-05T07:48:14.906Z,15.45
2022-10-05T07:49:47.305Z,15.92
2022-10-05T07:50:57.637Z,15.12
2022-10-05T07:52:11.494Z,15.15
2022-10-05T07:53:26.029Z,15.39
2022-10-05T07:54:50.114Z,15.22
2022-10-05T07:56:10.252Z,15.01
2022-10-05T07:57:26.721Z,15.25
2022-10-05T07:58:38.512Z,15.39
2022-10-05T07:59:55.161Z,15.47
2022-10-05T08:01:08.402Z,14.80
2022-10-05T08:02:24.471Z,15.16
2022-10-05T08:03:50.170Z,15.46
2022-10-05T08:05:07.255Z,15.97
2022-10-05T08:06:25.552Z,15.81
2022-10-05T08:07:31.965Z,16.32
2022-10-05T08:08:51.021Z,16.04
2022-10-05T08:10:04.541Z,16.04
2022-10-05T08:11:29.420Z,15.94
2022-10-05T08:12:43.458Z,15.67
2022-10-05T08:13:56.458Z,15.90
2022-10-05T08:15:10.544Z,15.72
2022-10-05T08:16:14.729Z,15.27
2022-10-05T08:17:54.967Z,15.55
2022-10-05T08:19:03.685Z,15.94
2022-10-05T08:20:23.388Z,16.12
2022-10-05T08:21:43.677Z,15.86
2022-10-05T08:22:55.257Z,15.92
2022-10-05T08:24:13.848Z,16.45
2022-10-05T08:25:46.480Z,16.23
2022-10-05T08:27:05.914Z,16.63
2022-10-05T08:28:22.902Z,16.64
2022-10-05T08:30:06.018Z,15.88
2022-10-05T08:31:57.238Z,16.55
2022-10-05T08:33:15.148Z,16.85
2022-10-05T08:34:34.962Z,17.05
2022-10-05T08:35:56.551Z,17.10
2022-10-05T08:37:06.224Z,17.46
2022-10-05T08:38:36.935Z,17.29
2022-10-05T08:39:54.943Z,16.96
2022-10-05T08:41:27.048Z,17.02
2022-10-05T08:43:19.709Z,16.88
2022-10-05T08:44:45.732Z,16.69
2022-10-05T08:46:29.756Z,16.14
2022-10-05T08:47:55.484Z,16.48
2022-10-05T08:49:35.048Z,16.76
2022-10-05T08:51:08.651Z,16.61
2022-10-05T08:52:35.022Z,16.75
2022-10-05T08:54:07.830Z,15.96
2022-10-05T08:55:32.702Z,15.81
2022-10-05T08:56:36.609Z,15.71
2022-10-05T08:58:12.871Z,15.84
2022-10-05T08:59:41.557Z,16.76
2022-10-05T09:00:56.635Z,16.89
2022-10-05T09:02:37.726Z,17.03
2022-10-05T09:04:06.731Z,17.40
2022-10-05T09:05:19.488Z,17.03
2022-10-05T09:06:46.077Z,17.20
2022-10-05T09:08:04.278Z,17.43
2022-10-05T09:09:25.889Z,18.16
2022-10-05T09:10:39.579Z,18.36
2022-10-05T09:12:20.136Z,18.42
2022-10-05T09:13:25.290Z,18.80
2022-10-05T09:15:24.793Z,19.06
2022-10-05T09:17:02.401Z,19.07
2022-10-05T09:18:26.880Z,18.63
2022-10-05T09:19:53.026Z,17.93
2022-10-05T09:21:14.111Z,17.62
2022-10-05T09:22:51.710Z,17.79
2022-10-05T09:24:15.280Z,17.96
2022-10-05T09:25:42.963Z,18.21
2022-10-05T09:27:03.486Z,17.66
2022-10-05T09:28:20.751Z,17.62
2022-10-05T09:29:54.384Z,18.15
2022-10-05T09:31:29.715Z,17.68
2022-10-05T09:32:41.590Z,17.66
2022-10-05T09:33:55.855Z,17.65
2022-10-05T09:35:36.149Z,17.50
2022-10-05T09:36:53.695Z,17.79
2022-10-05T09:38:12.582Z,17.72
2022-10-05T09:40:01.938Z,17.54
2022-10-05T09:41:47.412Z,17.36
2022-10-05T09:43:07.184Z,17.22
2022-10-05T09:44:24.627Z,16.94
2022-10-05T09:45:36.029Z,17.25
2022-10-05T09:46:47.842Z,17.23
2022-10-05T09:48:02.700Z,17.24
2022-10-05T09:49:37.256Z,17.31
2022-10-05T09:51:06.642Z,16.98
2022-10-05T09:52:22.273Z,17.10
2022-10-05T09:53:42.302Z,17.28
2022-10-05T09:54:53.505Z,17.54
2022-10-05T09:56:10.168Z,17.52
2022-10-05T09:57:42.621Z,17.55
2022-10-05T09:59:30.638Z,17.66
2022-10-05T10:01:08.811Z,17.68
2022-10-05T10:02:53.951Z,18.12
2022-10-05T10:04:28.646Z,17.97
2022-10-05T10:06:10.781Z,18.39
2022-10-05T10:07:30.644Z,18.08
2022-10-05T10:09:01.447Z,17.74
2022-10-05T10:10:34.690Z,16.89
2022-10-05T10:11:47.157Z,17.02
2022-10-05T10:13:30.235Z,16.84
2022-10-05T10:14:44.859Z,16.90
2022-10-05T10:16:04.557Z,16.73
2022-10-05T10:17:41.886Z,16.68
2022-10-05T10:19:07.508Z,16.87
2022-10-05T10:20:13.160Z,16.84
2022-10-05T10:21:43.020Z,16.76
2022-10-05T10:23:28.004Z,16.58
2022-10-05T10:24:58.639Z,16.81
2022-10-05T10:27:06.015Z,17.06
2022-10-05T10:28:36.411Z,16.80
2022-10-05T10:30:21.859Z,16.70
2022-10-05T10:31:56.316Z,16.66
2022-10-05T10:33:34.321Z,16.82
2022-10-05T10:34:54.138Z,17.01
2022-10-05T10:36:23.674Z,16.77
2022-10-05T10:37:35.945Z,16.85
2022-10-05T10:39:04.178Z,17.21
2022-10-05T10:40:25.782Z,17.33
2022-10-05T10:41:51.304Z,17.55
2022-10-05T10:43:06.117Z,17.95
2022-10-05T10:44:31.638Z,18.37
2022-10-05T10:46:09.644Z,18.33
2022-10-05T10:47:55.779Z,18.26
2022-10-05T10:49:15.956Z,17.86
2022-10-05T10:50:58.481Z,18.33
2022-10-05T10:52:27.638Z,18.56
2022-10-05T10:53:52.778Z,18.72
2022-10-05T10:55:13.194Z,19.06
2022-10-05T10:56:44.293Z,19.39
2022-10-05T10:58:42.981Z,19.51
2022-10-05T11:00:11.403Z,19.53
2022-10-05T11:01:58.422Z,20.01
2022-10-05T11:03:21.039Z,19.64
2022-10-05T11:04:57.563Z,19.93
2022-10-05T11:06:00.131Z,20.29
2022-10-05T11:07:17.703Z,20.47
2022-10-05T11:08:20.332Z,20.69
2022-10-05T11:09:29.924Z,20.75
2022-10-05T11:10:54.076Z,21.11
2022-10-05T11:12:18.231Z,21.18
2022-10-05T11:13:50.386Z,21.19
2022-10-05T11:15:05.095Z,20.47
2022-10-05T11:16:43.374Z,20.34
2022-10-05T11:17:53.191Z,20.60
2022-10-05T11:20:02.854Z,20.23
2022-10-05T11:21:47.229Z,19.67
2022-10-05T11:23:34.229Z,20.13
2022-10-05T11:24:58.572Z,20.43
2022-10-05T11:26:19.296Z,20.73
2022-10-05T11:27:37.840Z,20.84
2022-10-05T11:29:13.899Z,19.65
2022-10-05T11:30:26.010Z,19.73
2022-10-05T11:31:40.751Z,20.15
2022-10-05T11:33:12.072Z,20.32
2022-10-05T11:34:28.629Z,20.25
2022-10-05T11:35:46.932Z,20.33
2022-10-05T11:37:14.225Z,20.11
2022-10-05T11:38:26.465Z,20.26
2022-10-05T11:39:55.017Z,20.27
2022-10-05T11:41:15.901Z,20.07
2022-10-05T11:42:56.237Z,19.91
2022-10-05T11:44:19.999Z,20.03
2022-10-05T11:46:20.997Z,19.45
2022-10-05T11:47:26.072Z,19.28
2022-10-05T11:48:44.310Z,19.53
2022-10-05T11:50:06.723Z,20.09
2022-10-05T11:51:31.320Z,20.41
2022-10-05T11:52:45.098Z,19.90
2022-10-05T11:54:02.234Z,19.92
2022-10-05T11:55:26.680Z,19.87
2022-10-05T11:56:37.292Z,19.87
2022-10-05T11:58:11.868Z,20.05
2022-10-05T11:59:34.717Z,19.78
2022-10-05T12:00:54.897Z,19.63
2022-10-05T12:02:25.533Z,19.24
2022-10-05T12:03:35.440Z,19.53
2022-10-05T12:04:46.718Z,19.54
2022-10-05T12:06:06.702Z,19.64
2022-10-05T12:07:21.124Z,19.49
2022-10-05T12:08:49.644Z,19.62
2022-10-05T12:10:17.553Z,19.65
2022-10-05T12:11:29.730Z,19.85
2022-10-05T12:12:50.171Z,20.09
2022-10-05T12:14:34.958Z,20.63
2022-10-05T12:15:59.161Z,20.97
2022-10-05T12:17:12.793Z,21.43
2022-10-05T12:18:30.292Z,21.16
2022-10-05T12:19:44.480Z,20.91
2022-10-05T12:20:54.479Z,21.30
2022-10-05T12:22:04.227Z,20.79
2022-10-05T12:23:26.273Z,20.93
2022-10-05T12:25:01.757Z,20.90
2022-10-05T12:26:11.339Z,21.01
2022-10-05T12:27:27.150Z,20.88
2022-10-05T12:28:42.577Z,20.72
2022-10-05T12:29:53.907Z,21.09
2022-10-05T12:31:02.469Z,21.07
2022-10-05T12:32:13.809Z,21.10
2022-10-05T12:33:25.894Z,21.16
2022-10-05T12:35:04.874Z,21.19
2022-10-05T12:36:11.946Z,21.07
2022-10-05T12:37:54.711Z,21.49
2022-10-05T12:39:17.523Z,21.48
2022-10-05T12:40:38.397Z,21.17
2022-10-05T12:41:46.797Z,21.07
2022-10-05T12:43:03.261Z,21.18
2022-10-05T12:44:26.546Z,21.27
2022-10-05T12:45:46.419Z,21.06
2022-10-05T12:47:01.575Z,21.27
2022-10-05T12:48:22.064Z,20.86
2022-10-05T12:49:31.774Z,20.76
2022-10-05T12:50:49.308Z,20.62
2022-10-05T12:52:01.854Z,20.37
2022-10-05T12:53:41.681Z,20.40
2022-10-05T12:54:58.842Z,20.12
2022-10-05T12:56:23.355Z,19.55
2022-10-05T12:57:44.649Z,19.55
2022-10-05T12:59:14.542Z,19.31
2022-10-05T13:00:22.932Z,19.50
2022-10-05T13:01:28.463Z,19.52
2022-10-05T13:02:45.486Z,19.45
2022-10-05T13:04:16.160Z,19.12
2022-10-05T13:05:26.923Z,18.93
2022-10-05T13:07:15.284Z,19.01
2022-10-05T13:08:31.552Z,19.01
2022-10-05T13:09:50.263Z,18.79
2022-10-05T13:11:31.756Z,18.85
2022-10-05T13:12:48.204Z,18.71
2022-10-05T13:13:58.234Z,18.75
2022-10-05T13:15:05.675Z,18.66
2022-10-05T13:16:28.883Z,18.63
2022-10-05T13:17:36.892Z,18.54
2022-10-05T13:18:54.668Z,18.60
2022-10-05T13:20:10.260Z,18.45
2022-10-05T13:21:18.627Z,18.41
2022-10-05T13:22:36.768Z,18.67
2022-10-05T13:23:39.234Z,18.81
2022-10-05T13:25:06.192Z,18.75
2022-10-05T13:26:32.562Z,18.90
2022-10-05T13:27:45.281Z,18.76
2022-10-05T13:28:57.010Z,18.91
2022-10-05T13:30:02.881Z,18.85
2022-10-05T13:31:24.170Z,19.02
2022-10-05T13:32:39.240Z,19.12
2022-10-05T13:33:53.517Z,19.23
2022-10-05T13:35:17.254Z,19.08
2022-10-05T13:37:02.295Z,19.00
2022-10-05T13:38:23.475Z,18.56
2022-10-05T13:40:06.378Z,18.57
2022-10-05T13:41:23.852Z,18.53
2022-10-05T13:42:37.948Z,18.38
2022-10-05T13:43:58.553Z,18.39
2022-10-05T13:45:11.898Z,18.44
2022-10-05T13:46:22.081Z,18.22
2022-10-05T13:47:30.125Z,18.23
2022-10-05T13:49:03.706Z,18.16
2022-10-05T13:50:14.387Z,18.19
2022-10-05T13:51:24.476Z,18.04
2022-10-05T13:52:42.598Z,17.96
2022-10-05T13:54:25.611Z,17.86
2022-10-05T13:55:47.794Z,17.79
2022-10-05T13:56:56.780Z,17.79
2022-10-05T13:58:30.068Z,17.72
2022-10-05T13:59:40.848Z,17.75
2022-10-05T14:00:58.577Z,17.66
2022-10-05T14:02:11.139Z,17.59
2022-10-05T14:03:29.813Z,17.63
2022-10-05T14:04:45.678Z,17.57
2022-10-05T14:05:57.652Z,17.68
2022-10-05T14:07:34.436Z,17.67
2022-10-05T14:08:48.245Z,17.64
2022-10-05T14:09:50.973Z,17.65
2022-10-05T14:10:54.538Z,17.63
2022-10-05T14:12:14.376Z,17.55
2022-10-05T14:13:45.330Z,17.54
2022-10-05T14:14:52.779Z,17.64
2022-10-05T14:19:06.726Z,17.50
2022-10-05T14:20:28.999Z,17.49
2022-10-05T14:21:42.839Z,17.46
2022-10-05T14:26:56.132Z,17.32
2022-10-05T14:28:10.346Z,17.33
2022-10-05T14:29:54.292Z,17.31
2022-10-05T14:31:26.818Z,17.24
2022-10-05T14:32:44.411Z,17.19
2022-10-05T14:33:46.932Z,17.19
2022-10-05T14:35:13.107Z,17.14
2022-10-05T14:36:44.117Z,17.06
2022-10-05T14:37:53.984Z,17.06
2022-10-05T14:38:58.704Z,17.03
2022-10-05T14:40:26.750Z,17.02
2022-10-05T14:41:35.236Z,17.03
2022-10-05T14:42:47.084Z,16.96
2022-10-05T14:44:09.900Z,16.99
2022-10-05T14:45:18.679Z,16.94
2022-10-05T14:46:53.987Z,16.96
2022-10-05T14:48:00.547Z,16.89
2022-10-05T14:49:27.670Z,16.82
2022-10-05T14:50:31.647Z,16.80
2022-10-05T14:51:34.934Z,16.72
2022-10-05T14:52:41.385Z,16.75
2022-10-05T14:53:55.957Z,16.77
2022-10-05T14:55:01.368Z,16.73
2022-10-05T14:56:12.791Z,16.63
2022-10-05T14:57:29.489Z,16.57
2022-10-05T14:59:10.538Z,16.52
2022-10-05T15:00:18.970Z,16.49
2022-10-05T15:01:32.622Z,16.39
2022-10-05T15:02:56.350Z,16.39
2022-10-05T15:06:58.545Z,16.17
2022-10-05T15:08:12.816Z,16.09
2022-10-05T15:09:47.466Z,16.08
2022-10-05T15:11:12.963Z,16.08
2022-10-05T15:12:34.012Z,16.01
2022-10-05T15:13:48.678Z,15.99
2022-10-05T15:15:04.012Z,15.92
2022-10-05T15:16:29.505Z,15.81
2022-10-05T15:17:54.094Z,15.86
2022-10-05T15:19:29.987Z,15.81
2022-10-05T15:21:08.193Z,15.75
2022-10-05T15:22:51.195Z,15.69
2022-10-05T15:24:17.937Z,15.60
2022-10-05T15:25:57.633Z,15.48
2022-10-05T15:29:22.527Z,15.16
2022-10-05T15:32:31.999Z,14.97
2022-10-05T15:33:41.024Z,14.91
2022-10-05T15:35:52.196Z,14.90
2022-10-05T15:37:28.164Z,14.76
2022-10-05T15:39:14.692Z,14.73
2022-10-05T15:40:41.087Z,14.61
2022-10-05T15:42:11.126Z,14.60
2022-10-05T15:45:53.607Z,14.49
2022-10-05T15:47:03.135Z,14.36
2022-10-05T15:48:18.170Z,14.35
2022-10-05T15:49:39.260Z,14.30
2022-10-05T15:50:56.045Z,14.21
2022-10-05T15:52:32.323Z,14.00
2022-10-05T15:54:17.156Z,13.91
2022-10-05T15:55:22.586Z,13.86
2022-10-05T15:56:38.676Z,13.83
2022-10-05T15:57:56.004Z,13.85
2022-10-05T15:59:27.975Z,13.72
2022-10-05T16:00:38.461Z,13.72
2022-10-05T16:01:56.863Z,13.64
2022-10-05T16:03:29.646Z,13.68
2022-10-05T16:04:53.950Z,13.65
2022-10-05T16:06:36.781Z,13.47
2022-10-05T16:08:04.552Z,13.47
2022-10-05T16:09:17.083Z,13.43
2022-10-05T16:10:24.426Z,13.39
2022-10-05T16:11:42.997Z,13.38
2022-10-05T16:12:52.046Z,13.25
2022-10-05T16:14:22.529Z,13.17
2022-10-05T16:15:26.720Z,13.15
2022-10-05T16:16:42.288Z,13.13
2022-10-05T16:18:32.735Z,13.10
2022-10-05T16:20:06.112Z,13.05
2022-10-05T16:21:39.147Z,12.99
2022-10-05T16:23:01.383Z,13.01
2022-10-05T16:24:18.655Z,12.91
2022-10-05T16:25:29.632Z,12.88
2022-10-05T16:26:43.588Z,12.85
2022-10-05T16:28:05.285Z,12.82
2022-10-05T16:29:19.561Z,12.73
2022-10-05T16:30:25.977Z,12.67
2022-10-05T16:31:54.615Z,12.63
2022-10-05T16:33:15.075Z,12.60
2022-10-05T16:34:35.592Z,12.56
2022-10-05T16:36:03.115Z,12.52
2022-10-05T16:37:28.383Z,12.49
2022-10-05T16:38:38.625Z,12.44
2022-10-05T16:39:46.729Z,12.38
2022-10-05T16:41:16.926Z,12.33
2022-10-05T16:42:58.103Z,12.35
2022-10-05T16:44:18.671Z,12.30
2022-10-05T16:45:21.176Z,12.29
2022-10-05T16:46:42.779Z,12.29
2022-10-05T16:47:49.406Z,12.19
2022-10-05T16:49:25.555Z,12.15
2022-10-05T16:50:44.275Z,12.09
2022-10-05T16:52:02.760Z,12.04
2022-10-05T16:53:14.545Z,12.00
2022-10-05T16:54:48.129Z,11.96
2022-10-05T16:55:57.446Z,11.97
2022-10-05T16:57:12.353Z,11.91
2022-10-05T16:58:25.655Z,11.86
2022-10-05T16:59:46.256Z,11.87
2022-10-05T17:01:19.824Z,11.95
2022-10-05T17:02:28.159Z,11.93
2022-10-05T17:03:46.057Z,11.88
2022-10-05T17:04:54.505Z,11.86
2022-10-05T17:06:15.046Z,11.82
2022-10-05T17:07:34.912Z,11.84
2022-10-05T17:09:06.062Z,11.85
2022-10-05T17:10:56.090Z,11.79
2022-10-05T17:12:05.805Z,11.76
2022-10-05T17:13:08.315Z,11.75
2022-10-05T17:15:02.803Z,11.73
2022-10-05T17:16:44.815Z,11.67
2022-10-05T17:18:20.201Z,11.65
2022-10-05T17:19:46.895Z,11.67
2022-10-05T17:20:55.313Z,11.67
2022-10-05T17:22:03.381Z,11.63
2022-10-05T17:23:18.577Z,11.57
2022-10-05T17:24:30.825Z,11.56
2022-10-05T17:25:50.122Z,11.58
2022-10-05T17:27:16.144Z,11.54
2022-10-05T17:28:18.929Z,11.45
2022-10-05T17:29:43.106Z,11.50
2022-10-05T17:31:07.517Z,11.28
2022-10-05T17:32:33.644Z,11.30
2022-10-05T17:34:14.209Z,11.38
2022-10-05T17:35:19.361Z,11.34
2022-10-05T17:36:23.402Z,11.30
2022-10-05T17:37:35.690Z,11.31
2022-10-05T17:38:46.514Z,11.33
2022-10-05T17:39:52.597Z,11.32
2022-10-05T17:41:01.246Z,11.24
2022-10-05T17:42:33.059Z,11.21
2022-10-05T17:43:35.956Z,11.16
2022-10-05T17:44:38.272Z,11.13
2022-10-05T17:45:43.267Z,11.03
2022-10-05T17:46:51.997Z,11.03
2022-10-05T17:48:04.427Z,11.07
2022-10-05T17:49:21.313Z,11.10
2022-10-05T17:51:03.591Z,11.09
2022-10-05T17:52:48.038Z,10.99
2022-10-05T17:54:08.761Z,10.92